sensor_id;sensor_type;location;lat;lon;timestamp;P1;durP1;ratioP1;P2;durP2;ratioP2
3949;SDS011;53057;50.988;6.314;2023-05-02T00:00:49;166.27;;;60.13;;
3949;SDS011;53057;50.988;6.314;2023-05-02T00:03:16;170.37;;;61.00;;
3949;SDS011;53057;50.988;6.314;2023-05-02T00:05:43;164.07;;;59.00;;
3949;SDS011;53057;50.988;6.314;2023-05-02T00:08:10;179.90;;;61.63;;
3949;SDS011;53057;50.988;6.314;2023-05-02T00:10:37;155.93;;;59.47;;
3949;SDS011;53057;50.988;6.314;2023-05-02T00:13:04;165.63;;;61.57;;
3949;SDS011;53057;50.988;6.314;2023-05-02T00:15:30;191.33;;;66.33;;
3949;SDS011;53057;50.988;6.314;2023-05-02T00:17:57;210.57;;;74.87;;
3949;SDS011;53057;50.988;6.314;2023-05-02T00:20:24;229.87;;;86.13;;
3949;SDS011;53057;50.988;6.314;2023-05-02T00:22:51;262.23;;;101.90;;
3949;SDS011;53057;50.988;6.314;2023-05-02T00:25:17;260.50;;;101.10;;
3949;SDS011;53057;50.988;6.314;2023-05-02T00:27:44;225.30;;;88.70;;
3949;SDS011;53057;50.988;6.314;2023-05-02T00:30:12;192.83;;;76.13;;
3949;SDS011;53057;50.988;6.314;2023-05-02T00:32:39;196.00;;;75.60;;
3949;SDS011;53057;50.988;6.314;2023-05-02T00:35:07;193.50;;;73.40;;
3949;SDS011;53057;50.988;6.314;2023-05-02T00:37:34;187.93;;;69.47;;
3949;SDS011;53057;50.988;6.314;2023-05-02T00:40:01;190.90;;;67.93;;
3949;SDS011;53057;50.988;6.314;2023-05-02T00:42:31;195.50;;;71.40;;
3949;SDS011;53057;50.988;6.314;2023-05-02T00:44:59;196.20;;;68.70;;
3949;SDS011;53057;50.988;6.314;2023-05-02T00:47:26;208.03;;;82.27;;
3949;SDS011;53057;50.988;6.314;2023-05-02T00:49:53;230.43;;;81.70;;
3949;SDS011;53057;50.988;6.314;2023-05-02T00:52:19;210.07;;;81.40;;
3949;SDS011;53057;50.988;6.314;2023-05-02T00:54:46;233.07;;;89.97;;
3949;SDS011;53057;50.988;6.314;2023-05-02T00:57:13;219.93;;;84.63;;
3949;SDS011;53057;50.988;6.314;2023-05-02T00:59:39;197.77;;;86.37;;
3949;SDS011;53057;50.988;6.314;2023-05-02T01:04:46;196.03;;;86.93;;
3949;SDS011;53057;50.988;6.314;2023-05-02T01:07:27;203.97;;;88.57;;
3949;SDS011;53057;50.988;6.314;2023-05-02T01:13:27;183.67;;;74.20;;
3949;SDS011;53057;50.988;6.314;2023-05-02T01:15:26;166.77;;;69.77;;
3949;SDS011;53057;50.988;6.314;2023-05-02T01:17:53;186.83;;;74.53;;
3949;SDS011;53057;50.988;6.314;2023-05-02T01:20:22;181.20;;;69.83;;
3949;SDS011;53057;50.988;6.314;2023-05-02T01:22:49;170.27;;;75.27;;
3949;SDS011;53057;50.988;6.314;2023-05-02T01:27:52;175.63;;;70.90;;
3949;SDS011;53057;50.988;6.314;2023-05-02T01:30:21;160.50;;;70.70;;
3949;SDS011;53057;50.988;6.314;2023-05-02T01:32:49;168.37;;;70.37;;
3949;SDS011;53057;50.988;6.314;2023-05-02T01:35:17;154.70;;;67.83;;
3949;SDS011;53057;50.988;6.314;2023-05-02T01:37:45;162.93;;;72.67;;
3949;SDS011;53057;50.988;6.314;2023-05-02T01:40:15;156.50;;;63.47;;
3949;SDS011;53057;50.988;6.314;2023-05-02T01:42:42;159.97;;;65.43;;
3949;SDS011;53057;50.988;6.314;2023-05-02T01:45:11;164.73;;;63.50;;
3949;SDS011;53057;50.988;6.314;2023-05-02T01:47:38;155.90;;;61.30;;
3949;SDS011;53057;50.988;6.314;2023-05-02T01:50:06;150.50;;;63.00;;
3949;SDS011;53057;50.988;6.314;2023-05-02T01:52:35;146.57;;;65.30;;
3949;SDS011;53057;50.988;6.314;2023-05-02T01:55:02;165.63;;;66.63;;
3949;SDS011;53057;50.988;6.314;2023-05-02T01:57:30;171.07;;;68.30;;
3949;SDS011;53057;50.988;6.314;2023-05-02T01:59:57;160.80;;;63.57;;
3949;SDS011;53057;50.988;6.314;2023-05-02T02:02:26;169.57;;;69.17;;
3949;SDS011;53057;50.988;6.314;2023-05-02T02:04:53;169.20;;;70.10;;
3949;SDS011;53057;50.988;6.314;2023-05-02T02:07:20;169.20;;;68.27;;
3949;SDS011;53057;50.988;6.314;2023-05-02T02:09:47;159.10;;;62.93;;
3949;SDS011;53057;50.988;6.314;2023-05-02T02:12:27;144.30;;;59.77;;
3949;SDS011;53057;50.988;6.314;2023-05-02T02:15:15;152.93;;;63.40;;
3949;SDS011;53057;50.988;6.314;2023-05-02T02:17:47;142.27;;;56.60;;
3949;SDS011;53057;50.988;6.314;2023-05-02T02:20:14;147.13;;;58.47;;
3949;SDS011;53057;50.988;6.314;2023-05-02T02:22:42;148.00;;;58.03;;
3949;SDS011;53057;50.988;6.314;2023-05-02T02:25:11;128.83;;;57.90;;
3949;SDS011;53057;50.988;6.314;2023-05-02T02:27:38;150.90;;;55.57;;
3949;SDS011;53057;50.988;6.314;2023-05-02T02:30:05;132.57;;;56.50;;
3949;SDS011;53057;50.988;6.314;2023-05-02T02:32:32;141.20;;;56.90;;
3949;SDS011;53057;50.988;6.314;2023-05-02T02:34:59;161.20;;;56.60;;
3949;SDS011;53057;50.988;6.314;2023-05-02T02:48:01;125.57;;;54.30;;
3949;SDS011;53057;50.988;6.314;2023-05-02T02:50:30;131.00;;;51.80;;
3949;SDS011;53057;50.988;6.314;2023-05-02T02:52:59;147.50;;;53.63;;
3949;SDS011;53057;50.988;6.314;2023-05-02T02:55:35;143.97;;;54.00;;
3949;SDS011;53057;50.988;6.314;2023-05-02T02:58:13;134.40;;;51.57;;
3949;SDS011;53057;50.988;6.314;2023-05-02T03:00:42;125.73;;;49.60;;
3949;SDS011;53057;50.988;6.314;2023-05-02T03:03:10;135.10;;;50.70;;
3949;SDS011;53057;50.988;6.314;2023-05-02T03:05:38;126.73;;;51.43;;
3949;SDS011;53057;50.988;6.314;2023-05-02T03:08:05;146.03;;;54.27;;
3949;SDS011;53057;50.988;6.314;2023-05-02T03:10:32;127.10;;;51.70;;
3949;SDS011;53057;50.988;6.314;2023-05-02T03:12:59;142.67;;;49.90;;
3949;SDS011;53057;50.988;6.314;2023-05-02T03:18:09;157.43;;;50.20;;
3949;SDS011;53057;50.988;6.314;2023-05-02T03:20:36;146.30;;;53.53;;
3949;SDS011;53057;50.988;6.314;2023-05-02T03:23:03;144.13;;;52.30;;
3949;SDS011;53057;50.988;6.314;2023-05-02T03:25:30;129.27;;;49.33;;
3949;SDS011;53057;50.988;6.314;2023-05-02T03:27:57;135.37;;;52.13;;
3949;SDS011;53057;50.988;6.314;2023-05-02T03:30:24;119.33;;;51.40;;
3949;SDS011;53057;50.988;6.314;2023-05-02T03:32:51;133.37;;;52.53;;
3949;SDS011;53057;50.988;6.314;2023-05-02T03:35:18;145.47;;;56.70;;
3949;SDS011;53057;50.988;6.314;2023-05-02T03:37:47;163.70;;;55.00;;
3949;SDS011;53057;50.988;6.314;2023-05-02T03:40:13;130.57;;;54.20;;
3949;SDS011;53057;50.988;6.314;2023-05-02T03:42:41;141.17;;;55.33;;
3949;SDS011;53057;50.988;6.314;2023-05-02T03:45:20;133.93;;;51.13;;
3949;SDS011;53057;50.988;6.314;2023-05-02T03:47:49;135.93;;;51.03;;
3949;SDS011;53057;50.988;6.314;2023-05-02T03:50:16;123.83;;;48.90;;
3949;SDS011;53057;50.988;6.314;2023-05-02T03:52:45;138.20;;;51.50;;
3949;SDS011;53057;50.988;6.314;2023-05-02T03:55:14;125.20;;;49.93;;
3949;SDS011;53057;50.988;6.314;2023-05-02T03:57:40;121.93;;;44.70;;
3949;SDS011;53057;50.988;6.314;2023-05-02T04:00:10;124.83;;;48.33;;
3949;SDS011;53057;50.988;6.314;2023-05-02T04:02:37;115.70;;;42.73;;
3949;SDS011;53057;50.988;6.314;2023-05-02T04:05:08;110.87;;;42.00;;
3949;SDS011;53057;50.988;6.314;2023-05-02T04:07:35;101.53;;;40.70;;
3949;SDS011;53057;50.988;6.314;2023-05-02T04:10:04;101.70;;;38.97;;
3949;SDS011;53057;50.988;6.314;2023-05-02T04:12:36;100.13;;;37.77;;
3949;SDS011;53057;50.988;6.314;2023-05-02T04:15:03;93.80;;;39.07;;
3949;SDS011;53057;50.988;6.314;2023-05-02T04:17:30;87.67;;;37.60;;
3949;SDS011;53057;50.988;6.314;2023-05-02T04:19:57;87.10;;;37.80;;
3949;SDS011;53057;50.988;6.314;2023-05-02T04:22:26;105.97;;;41.17;;
3949;SDS011;53057;50.988;6.314;2023-05-02T04:24:59;91.63;;;37.07;;
3949;SDS011;53057;50.988;6.314;2023-05-02T04:27:27;95.73;;;37.80;;
3949;SDS011;53057;50.988;6.314;2023-05-02T04:29:54;94.63;;;38.33;;
3949;SDS011;53057;50.988;6.314;2023-05-02T04:32:21;91.73;;;36.43;;
3949;SDS011;53057;50.988;6.314;2023-05-02T04:34:48;92.23;;;38.77;;
3949;SDS011;53057;50.988;6.314;2023-05-02T04:37:15;80.77;;;33.40;;
3949;SDS011;53057;50.988;6.314;2023-05-02T04:39:44;80.43;;;32.80;;
3949;SDS011;53057;50.988;6.314;2023-05-02T04:42:20;74.93;;;33.93;;
3949;SDS011;53057;50.988;6.314;2023-05-02T04:44:57;77.60;;;35.30;;
3949;SDS011;53057;50.988;6.314;2023-05-02T04:47:24;83.00;;;32.73;;
3949;SDS011;53057;50.988;6.314;2023-05-02T04:49:50;70.60;;;30.47;;
3949;SDS011;53057;50.988;6.314;2023-05-02T04:52:17;56.73;;;27.07;;
3949;SDS011;53057;50.988;6.314;2023-05-02T04:54:44;49.13;;;23.17;;
3949;SDS011;53057;50.988;6.314;2023-05-02T04:57:10;42.10;;;22.20;;
3949;SDS011;53057;50.988;6.314;2023-05-02T04:59:41;41.33;;;22.10;;
3949;SDS011;53057;50.988;6.314;2023-05-02T05:02:09;41.43;;;19.07;;
3949;SDS011;53057;50.988;6.314;2023-05-02T05:04:38;39.43;;;19.23;;
3949;SDS011;53057;50.988;6.314;2023-05-02T05:07:05;35.90;;;18.63;;
3949;SDS011;53057;50.988;6.314;2023-05-02T05:09:32;38.40;;;16.50;;
3949;SDS011;53057;50.988;6.314;2023-05-02T05:11:59;37.17;;;17.17;;
3949;SDS011;53057;50.988;6.314;2023-05-02T05:14:29;32.40;;;15.43;;
3949;SDS011;53057;50.988;6.314;2023-05-02T05:16:57;40.80;;;17.07;;
3949;SDS011;53057;50.988;6.314;2023-05-02T05:19:24;32.97;;;17.03;;
3949;SDS011;53057;50.988;6.314;2023-05-02T05:21:51;38.33;;;18.10;;
3949;SDS011;53057;50.988;6.314;2023-05-02T05:24:19;36.30;;;18.33;;
3949;SDS011;53057;50.988;6.314;2023-05-02T05:26:47;37.90;;;17.93;;
3949;SDS011;53057;50.988;6.314;2023-05-02T05:29:14;40.67;;;18.20;;
3949;SDS011;53057;50.988;6.314;2023-05-02T05:31:42;35.33;;;17.87;;
3949;SDS011;53057;50.988;6.314;2023-05-02T05:34:12;37.70;;;20.70;;
3949;SDS011;53057;50.988;6.314;2023-05-02T05:36:40;55.87;;;24.43;;
3949;SDS011;53057;50.988;6.314;2023-05-02T05:39:07;54.00;;;25.30;;
3949;SDS011;53057;50.988;6.314;2023-05-02T05:41:35;49.00;;;24.00;;
3949;SDS011;53057;50.988;6.314;2023-05-02T05:44:06;43.07;;;22.70;;
3949;SDS011;53057;50.988;6.314;2023-05-02T05:46:33;48.73;;;24.77;;
3949;SDS011;53057;50.988;6.314;2023-05-02T05:49:01;45.60;;;23.90;;
3949;SDS011;53057;50.988;6.314;2023-05-02T05:51:28;41.67;;;20.43;;
3949;SDS011;53057;50.988;6.314;2023-05-02T05:53:57;42.93;;;18.93;;
3949;SDS011;53057;50.988;6.314;2023-05-02T05:56:25;45.60;;;20.73;;
3949;SDS011;53057;50.988;6.314;2023-05-02T05:59:07;48.40;;;18.37;;
3949;SDS011;53057;50.988;6.314;2023-05-02T06:01:37;40.23;;;21.93;;
3949;SDS011;53057;50.988;6.314;2023-05-02T06:04:04;48.33;;;23.20;;
3949;SDS011;53057;50.988;6.314;2023-05-02T06:06:33;49.10;;;24.30;;
3949;SDS011;53057;50.988;6.314;2023-05-02T06:09:01;51.67;;;24.40;;
3949;SDS011;53057;50.988;6.314;2023-05-02T06:11:28;46.30;;;23.53;;
3949;SDS011;53057;50.988;6.314;2023-05-02T06:13:55;48.30;;;24.60;;
3949;SDS011;53057;50.988;6.314;2023-05-02T06:16:22;46.30;;;22.23;;
3949;SDS011;53057;50.988;6.314;2023-05-02T06:18:49;48.60;;;24.00;;
3949;SDS011;53057;50.988;6.314;2023-05-02T06:21:17;53.30;;;28.17;;
3949;SDS011;53057;50.988;6.314;2023-05-02T06:23:43;50.47;;;24.07;;
3949;SDS011;53057;50.988;6.314;2023-05-02T06:26:11;53.13;;;24.83;;
3949;SDS011;53057;50.988;6.314;2023-05-02T06:28:37;44.07;;;23.30;;
3949;SDS011;53057;50.988;6.314;2023-05-02T06:31:04;44.67;;;21.40;;
3949;SDS011;53057;50.988;6.314;2023-05-02T06:33:31;45.63;;;19.97;;
3949;SDS011;53057;50.988;6.314;2023-05-02T06:35:58;41.30;;;19.80;;
3949;SDS011;53057;50.988;6.314;2023-05-02T06:38:27;40.13;;;20.73;;
3949;SDS011;53057;50.988;6.314;2023-05-02T06:40:54;41.17;;;23.43;;
3949;SDS011;53057;50.988;6.314;2023-05-02T06:43:21;39.63;;;20.30;;
3949;SDS011;53057;50.988;6.314;2023-05-02T06:45:48;39.27;;;20.40;;
3949;SDS011;53057;50.988;6.314;2023-05-02T06:48:14;31.90;;;18.17;;
3949;SDS011;53057;50.988;6.314;2023-05-02T06:50:41;28.80;;;18.00;;
3949;SDS011;53057;50.988;6.314;2023-05-02T06:53:08;37.47;;;18.80;;
3949;SDS011;53057;50.988;6.314;2023-05-02T06:55:34;33.47;;;16.17;;
3949;SDS011;53057;50.988;6.314;2023-05-02T06:58:01;14.63;;;7.30;;
3949;SDS011;53057;50.988;6.314;2023-05-02T07:00:27;15.10;;;6.93;;
3949;SDS011;53057;50.988;6.314;2023-05-02T07:02:54;12.03;;;6.07;;
3949;SDS011;53057;50.988;6.314;2023-05-02T07:05:21;6.00;;;4.90;;
3949;SDS011;53057;50.988;6.314;2023-05-02T07:07:49;9.70;;;5.07;;
3949;SDS011;53057;50.988;6.314;2023-05-02T07:10:15;9.60;;;5.47;;
3949;SDS011;53057;50.988;6.314;2023-05-02T07:12:42;8.43;;;4.80;;
3949;SDS011;53057;50.988;6.314;2023-05-02T07:15:08;9.87;;;4.60;;
3949;SDS011;53057;50.988;6.314;2023-05-02T07:17:35;12.90;;;4.10;;
3949;SDS011;53057;50.988;6.314;2023-05-02T07:20:02;6.87;;;4.47;;
3949;SDS011;53057;50.988;6.314;2023-05-02T07:22:30;10.33;;;3.97;;
3949;SDS011;53057;50.988;6.314;2023-05-02T07:24:58;9.30;;;4.43;;
3949;SDS011;53057;50.988;6.314;2023-05-02T07:27:24;5.43;;;3.40;;
3949;SDS011;53057;50.988;6.314;2023-05-02T07:29:51;7.70;;;3.63;;
3949;SDS011;53057;50.988;6.314;2023-05-02T07:32:18;5.37;;;2.93;;
3949;SDS011;53057;50.988;6.314;2023-05-02T07:34:47;10.27;;;3.13;;
3949;SDS011;53057;50.988;6.314;2023-05-02T07:37:14;11.53;;;3.40;;
3949;SDS011;53057;50.988;6.314;2023-05-02T07:39:40;12.83;;;3.43;;
3949;SDS011;53057;50.988;6.314;2023-05-02T07:42:07;6.90;;;3.17;;
3949;SDS011;53057;50.988;6.314;2023-05-02T07:44:34;5.73;;;3.00;;
3949;SDS011;53057;50.988;6.314;2023-05-02T07:47:01;10.60;;;2.67;;
3949;SDS011;53057;50.988;6.314;2023-05-02T07:49:28;5.00;;;2.53;;
3949;SDS011;53057;50.988;6.314;2023-05-02T07:51:55;7.60;;;2.37;;
3949;SDS011;53057;50.988;6.314;2023-05-02T07:54:22;5.03;;;2.90;;
3949;SDS011;53057;50.988;6.314;2023-05-02T07:56:51;12.53;;;3.70;;
3949;SDS011;53057;50.988;6.314;2023-05-02T07:59:18;7.77;;;2.80;;
3949;SDS011;53057;50.988;6.314;2023-05-02T08:01:44;3.97;;;3.10;;
3949;SDS011;53057;50.988;6.314;2023-05-02T08:04:11;7.33;;;1.90;;
3949;SDS011;53057;50.988;6.314;2023-05-02T08:06:38;9.27;;;2.17;;
3949;SDS011;53057;50.988;6.314;2023-05-02T08:09:05;5.47;;;2.20;;
3949;SDS011;53057;50.988;6.314;2023-05-02T08:11:32;4.00;;;2.20;;
3949;SDS011;53057;50.988;6.314;2023-05-02T08:13:58;2.90;;;2.33;;
3949;SDS011;53057;50.988;6.314;2023-05-02T08:16:25;4.70;;;2.67;;
3949;SDS011;53057;50.988;6.314;2023-05-02T08:18:52;3.10;;;2.20;;
3949;SDS011;53057;50.988;6.314;2023-05-02T08:21:18;5.70;;;3.20;;
3949;SDS011;53057;50.988;6.314;2023-05-02T08:23:45;7.37;;;3.80;;
3949;SDS011;53057;50.988;6.314;2023-05-02T08:26:12;7.30;;;3.47;;
3949;SDS011;53057;50.988;6.314;2023-05-02T08:28:40;4.00;;;3.47;;
3949;SDS011;53057;50.988;6.314;2023-05-02T08:31:07;3.83;;;3.47;;
3949;SDS011;53057;50.988;6.314;2023-05-02T08:33:33;13.77;;;3.50;;
3949;SDS011;53057;50.988;6.314;2023-05-02T08:36:08;3.97;;;2.43;;
3949;SDS011;53057;50.988;6.314;2023-05-02T08:38:35;3.00;;;2.80;;
3949;SDS011;53057;50.988;6.314;2023-05-02T08:41:02;12.40;;;4.13;;
3949;SDS011;53057;50.988;6.314;2023-05-02T08:43:29;5.23;;;2.23;;
3949;SDS011;53057;50.988;6.314;2023-05-02T08:45:57;7.37;;;2.93;;
3949;SDS011;53057;50.988;6.314;2023-05-02T08:48:25;5.57;;;2.60;;
3949;SDS011;53057;50.988;6.314;2023-05-02T08:50:52;7.07;;;2.93;;
3949;SDS011;53057;50.988;6.314;2023-05-02T08:53:19;6.70;;;3.00;;
3949;SDS011;53057;50.988;6.314;2023-05-02T08:55:47;4.83;;;2.93;;
3949;SDS011;53057;50.988;6.314;2023-05-02T08:58:14;6.30;;;2.90;;
3949;SDS011;53057;50.988;6.314;2023-05-02T09:00:42;4.40;;;2.90;;
3949;SDS011;53057;50.988;6.314;2023-05-02T09:03:15;6.27;;;3.03;;
3949;SDS011;53057;50.988;6.314;2023-05-02T09:05:52;4.90;;;2.87;;
3949;SDS011;53057;50.988;6.314;2023-05-02T09:08:23;3.30;;;2.50;;
3949;SDS011;53057;50.988;6.314;2023-05-02T09:10:50;11.10;;;3.67;;
3949;SDS011;53057;50.988;6.314;2023-05-02T09:13:27;4.37;;;2.13;;
3949;SDS011;53057;50.988;6.314;2023-05-02T09:15:57;2.47;;;2.27;;
3949;SDS011;53057;50.988;6.314;2023-05-02T09:18:28;4.33;;;2.70;;
3949;SDS011;53057;50.988;6.314;2023-05-02T09:20:59;6.93;;;2.57;;
3949;SDS011;53057;50.988;6.314;2023-05-02T09:23:36;6.67;;;2.40;;
3949;SDS011;53057;50.988;6.314;2023-05-02T09:26:10;5.40;;;2.90;;
3949;SDS011;53057;50.988;6.314;2023-05-02T09:31:07;6.90;;;3.27;;
3949;SDS011;53057;50.988;6.314;2023-05-02T09:33:34;5.13;;;2.90;;
3949;SDS011;53057;50.988;6.314;2023-05-02T09:36:01;2.60;;;2.40;;
3949;SDS011;53057;50.988;6.314;2023-05-02T09:38:28;5.97;;;2.47;;
3949;SDS011;53057;50.988;6.314;2023-05-02T09:40:55;4.83;;;2.60;;
3949;SDS011;53057;50.988;6.314;2023-05-02T09:43:21;6.47;;;2.43;;
3949;SDS011;53057;50.988;6.314;2023-05-02T09:45:55;3.13;;;1.97;;
3949;SDS011;53057;50.988;6.314;2023-05-02T09:48:23;4.23;;;1.93;;
3949;SDS011;53057;50.988;6.314;2023-05-02T09:50:50;6.73;;;2.70;;
3949;SDS011;53057;50.988;6.314;2023-05-02T09:53:16;5.37;;;2.23;;
3949;SDS011;53057;50.988;6.314;2023-05-02T09:55:44;7.63;;;3.30;;
3949;SDS011;53057;50.988;6.314;2023-05-02T09:58:19;12.90;;;3.63;;
3949;SDS011;53057;50.988;6.314;2023-05-02T10:00:46;6.87;;;2.90;;
3949;SDS011;53057;50.988;6.314;2023-05-02T10:03:17;4.00;;;2.80;;
3949;SDS011;53057;50.988;6.314;2023-05-02T10:05:44;17.10;;;3.33;;
3949;SDS011;53057;50.988;6.314;2023-05-02T10:08:11;10.90;;;4.13;;
3949;SDS011;53057;50.988;6.314;2023-05-02T10:10:40;8.27;;;3.07;;
3949;SDS011;53057;50.988;6.314;2023-05-02T10:13:10;7.60;;;4.13;;
3949;SDS011;53057;50.988;6.314;2023-05-02T10:15:41;15.90;;;5.17;;
3949;SDS011;53057;50.988;6.314;2023-05-02T10:18:12;14.30;;;5.00;;
3949;SDS011;53057;50.988;6.314;2023-05-02T10:20:46;20.97;;;5.93;;
3949;SDS011;53057;50.988;6.314;2023-05-02T10:23:15;12.57;;;5.63;;
3949;SDS011;53057;50.988;6.314;2023-05-02T10:25:42;28.23;;;5.70;;
3949;SDS011;53057;50.988;6.314;2023-05-02T10:28:09;8.00;;;4.53;;
3949;SDS011;53057;50.988;6.314;2023-05-02T10:30:35;13.47;;;4.60;;
3949;SDS011;53057;50.988;6.314;2023-05-02T10:33:02;12.63;;;4.70;;
3949;SDS011;53057;50.988;6.314;2023-05-02T10:35:30;10.37;;;4.47;;
3949;SDS011;53057;50.988;6.314;2023-05-02T10:37:57;7.10;;;4.60;;
3949;SDS011;53057;50.988;6.314;2023-05-02T10:40:25;6.17;;;4.13;;
3949;SDS011;53057;50.988;6.314;2023-05-02T10:42:52;11.83;;;4.43;;
3949;SDS011;53057;50.988;6.314;2023-05-02T10:45:29;9.20;;;3.53;;
3949;SDS011;53057;50.988;6.314;2023-05-02T10:48:11;12.03;;;3.60;;
3949;SDS011;53057;50.988;6.314;2023-05-02T10:50:45;10.37;;;4.30;;
3949;SDS011;53057;50.988;6.314;2023-05-02T10:53:25;10.60;;;4.30;;
3949;SDS011;53057;50.988;6.314;2023-05-02T10:58:34;11.43;;;5.00;;
3949;SDS011;53057;50.988;6.314;2023-05-02T11:03:56;9.27;;;6.03;;
3949;SDS011;53057;50.988;6.314;2023-05-02T11:06:24;6.30;;;4.13;;
3949;SDS011;53057;50.988;6.314;2023-05-02T11:08:51;10.27;;;5.03;;
3949;SDS011;53057;50.988;6.314;2023-05-02T11:14:03;8.63;;;3.40;;
3949;SDS011;53057;50.988;6.314;2023-05-02T11:19:15;5.67;;;3.70;;
3949;SDS011;53057;50.988;6.314;2023-05-02T11:21:41;9.83;;;3.90;;
3949;SDS011;53057;50.988;6.314;2023-05-02T11:27:00;9.33;;;3.50;;
3949;SDS011;53057;50.988;6.314;2023-05-02T11:32:22;9.93;;;3.20;;
3949;SDS011;53057;50.988;6.314;2023-05-02T11:34:49;8.17;;;3.20;;
3949;SDS011;53057;50.988;6.314;2023-05-02T11:37:18;12.27;;;4.27;;
3949;SDS011;53057;50.988;6.314;2023-05-02T11:39:46;8.30;;;3.83;;
3949;SDS011;53057;50.988;6.314;2023-05-02T11:42:28;8.30;;;3.30;;
3949;SDS011;53057;50.988;6.314;2023-05-02T11:44:56;11.67;;;4.17;;
3949;SDS011;53057;50.988;6.314;2023-05-02T11:47:24;7.17;;;3.30;;
3949;SDS011;53057;50.988;6.314;2023-05-02T11:49:53;6.00;;;3.37;;
3949;SDS011;53057;50.988;6.314;2023-05-02T11:52:20;8.40;;;3.80;;
3949;SDS011;53057;50.988;6.314;2023-05-02T11:54:47;13.00;;;4.30;;
3949;SDS011;53057;50.988;6.314;2023-05-02T11:57:14;14.23;;;6.37;;
3949;SDS011;53057;50.988;6.314;2023-05-02T11:59:48;22.40;;;5.13;;
3949;SDS011;53057;50.988;6.314;2023-05-02T12:02:14;8.30;;;4.33;;
3949;SDS011;53057;50.988;6.314;2023-05-02T12:04:41;9.27;;;4.77;;
3949;SDS011;53057;50.988;6.314;2023-05-02T12:07:09;7.80;;;4.37;;
3949;SDS011;53057;50.988;6.314;2023-05-02T12:09:50;9.00;;;4.43;;
3949;SDS011;53057;50.988;6.314;2023-05-02T12:12:18;14.97;;;4.30;;
3949;SDS011;53057;50.988;6.314;2023-05-02T12:14:45;8.33;;;3.73;;
3949;SDS011;53057;50.988;6.314;2023-05-02T12:17:12;9.13;;;4.90;;
3949;SDS011;53057;50.988;6.314;2023-05-02T12:19:38;13.43;;;5.60;;
3949;SDS011;53057;50.988;6.314;2023-05-02T12:22:05;8.50;;;5.07;;
3949;SDS011;53057;50.988;6.314;2023-05-02T12:24:33;9.43;;;4.10;;
3949;SDS011;53057;50.988;6.314;2023-05-02T12:27:14;8.10;;;4.50;;
3949;SDS011;53057;50.988;6.314;2023-05-02T12:29:41;10.33;;;3.57;;
3949;SDS011;53057;50.988;6.314;2023-05-02T12:32:09;5.17;;;3.47;;
3949;SDS011;53057;50.988;6.314;2023-05-02T12:34:36;6.53;;;4.77;;
3949;SDS011;53057;50.988;6.314;2023-05-02T12:37:03;9.60;;;4.13;;
3949;SDS011;53057;50.988;6.314;2023-05-02T12:39:37;9.57;;;4.20;;
3949;SDS011;53057;50.988;6.314;2023-05-02T12:42:16;7.13;;;4.17;;
3949;SDS011;53057;50.988;6.314;2023-05-02T12:44:44;7.67;;;3.40;;
3949;SDS011;53057;50.988;6.314;2023-05-02T12:47:15;6.10;;;4.70;;
3949;SDS011;53057;50.988;6.314;2023-05-02T12:52:16;6.90;;;4.63;;
3949;SDS011;53057;50.988;6.314;2023-05-02T12:54:42;7.83;;;4.00;;
3949;SDS011;53057;50.988;6.314;2023-05-02T12:57:20;5.47;;;4.03;;
3949;SDS011;53057;50.988;6.314;2023-05-02T12:59:47;12.73;;;4.20;;
3949;SDS011;53057;50.988;6.314;2023-05-02T13:02:13;9.53;;;5.00;;
3949;SDS011;53057;50.988;6.314;2023-05-02T13:04:40;11.33;;;4.80;;
3949;SDS011;53057;50.988;6.314;2023-05-02T13:07:07;9.33;;;4.50;;
3949;SDS011;53057;50.988;6.314;2023-05-02T13:09:33;9.20;;;4.30;;
3949;SDS011;53057;50.988;6.314;2023-05-02T13:12:00;8.63;;;4.63;;
3949;SDS011;53057;50.988;6.314;2023-05-02T13:14:28;11.97;;;3.93;;
3949;SDS011;53057;50.988;6.314;2023-05-02T13:16:55;7.27;;;4.17;;
3949;SDS011;53057;50.988;6.314;2023-05-02T13:19:22;10.30;;;4.17;;
3949;SDS011;53057;50.988;6.314;2023-05-02T13:21:49;5.83;;;3.60;;
3949;SDS011;53057;50.988;6.314;2023-05-02T13:24:16;7.97;;;4.00;;
3949;SDS011;53057;50.988;6.314;2023-05-02T13:26:42;8.93;;;4.93;;
3949;SDS011;53057;50.988;6.314;2023-05-02T13:29:09;5.03;;;3.73;;
3949;SDS011;53057;50.988;6.314;2023-05-02T13:31:37;5.77;;;3.93;;
3949;SDS011;53057;50.988;6.314;2023-05-02T13:34:04;338.53;;;101.47;;
3949;SDS011;53057;50.988;6.314;2023-05-02T13:36:31;15.00;;;4.73;;
3949;SDS011;53057;50.988;6.314;2023-05-02T13:38:58;5.30;;;3.03;;
3949;SDS011;53057;50.988;6.314;2023-05-02T13:41:24;5.97;;;3.80;;
3949;SDS011;53057;50.988;6.314;2023-05-02T13:43:51;10.10;;;3.47;;
3949;SDS011;53057;50.988;6.314;2023-05-02T13:46:18;7.50;;;4.30;;
3949;SDS011;53057;50.988;6.314;2023-05-02T13:48:44;10.63;;;4.10;;
3949;SDS011;53057;50.988;6.314;2023-05-02T13:51:11;11.20;;;3.77;;
3949;SDS011;53057;50.988;6.314;2023-05-02T13:53:37;8.10;;;4.53;;
3949;SDS011;53057;50.988;6.314;2023-05-02T13:56:04;5.30;;;3.67;;
3949;SDS011;53057;50.988;6.314;2023-05-02T13:58:31;5.07;;;3.80;;
3949;SDS011;53057;50.988;6.314;2023-05-02T14:00:57;8.67;;;4.23;;
3949;SDS011;53057;50.988;6.314;2023-05-02T14:03:24;10.23;;;4.43;;
3949;SDS011;53057;50.988;6.314;2023-05-02T14:05:51;12.33;;;4.30;;
3949;SDS011;53057;50.988;6.314;2023-05-02T14:08:18;13.10;;;5.67;;
3949;SDS011;53057;50.988;6.314;2023-05-02T14:10:44;9.33;;;4.90;;
3949;SDS011;53057;50.988;6.314;2023-05-02T14:13:11;8.90;;;4.13;;
3949;SDS011;53057;50.988;6.314;2023-05-02T14:15:38;13.83;;;5.67;;
3949;SDS011;53057;50.988;6.314;2023-05-02T14:18:04;5.53;;;4.23;;
3949;SDS011;53057;50.988;6.314;2023-05-02T14:20:31;7.50;;;3.80;;
3949;SDS011;53057;50.988;6.314;2023-05-02T14:22:58;11.73;;;4.13;;
3949;SDS011;53057;50.988;6.314;2023-05-02T14:25:25;6.17;;;3.90;;
3949;SDS011;53057;50.988;6.314;2023-05-02T14:27:51;8.77;;;3.83;;
3949;SDS011;53057;50.988;6.314;2023-05-02T14:30:18;12.97;;;3.73;;
3949;SDS011;53057;50.988;6.314;2023-05-02T14:32:45;7.27;;;4.03;;
3949;SDS011;53057;50.988;6.314;2023-05-02T14:35:11;14.50;;;5.40;;
3949;SDS011;53057;50.988;6.314;2023-05-02T14:37:38;8.67;;;4.17;;
3949;SDS011;53057;50.988;6.314;2023-05-02T14:40:05;5.07;;;3.90;;
3949;SDS011;53057;50.988;6.314;2023-05-02T14:42:32;5.10;;;4.60;;
3949;SDS011;53057;50.988;6.314;2023-05-02T14:44:58;11.53;;;4.53;;
3949;SDS011;53057;50.988;6.314;2023-05-02T14:47:27;4.73;;;4.20;;
3949;SDS011;53057;50.988;6.314;2023-05-02T14:49:56;7.60;;;4.53;;
3949;SDS011;53057;50.988;6.314;2023-05-02T14:52:23;7.90;;;3.97;;
3949;SDS011;53057;50.988;6.314;2023-05-02T14:54:50;5.90;;;4.10;;
3949;SDS011;53057;50.988;6.314;2023-05-02T14:57:16;8.60;;;4.47;;
3949;SDS011;53057;50.988;6.314;2023-05-02T14:59:43;9.67;;;4.40;;
3949;SDS011;53057;50.988;6.314;2023-05-02T15:02:10;10.40;;;4.33;;
3949;SDS011;53057;50.988;6.314;2023-05-02T15:04:37;8.03;;;4.30;;
3949;SDS011;53057;50.988;6.314;2023-05-02T15:07:04;11.00;;;4.30;;
3949;SDS011;53057;50.988;6.314;2023-05-02T15:09:31;8.30;;;4.23;;
3949;SDS011;53057;50.988;6.314;2023-05-02T15:11:57;7.63;;;4.17;;
3949;SDS011;53057;50.988;6.314;2023-05-02T15:14:24;9.67;;;4.93;;
3949;SDS011;53057;50.988;6.314;2023-05-02T15:16:50;11.70;;;4.20;;
3949;SDS011;53057;50.988;6.314;2023-05-02T15:19:17;5.43;;;4.03;;
3949;SDS011;53057;50.988;6.314;2023-05-02T15:21:44;5.30;;;3.63;;
3949;SDS011;53057;50.988;6.314;2023-05-02T15:24:10;7.40;;;5.50;;
3949;SDS011;53057;50.988;6.314;2023-05-02T15:26:37;5.33;;;4.40;;
3949;SDS011;53057;50.988;6.314;2023-05-02T15:29:06;11.10;;;5.30;;
3949;SDS011;53057;50.988;6.314;2023-05-02T15:31:32;6.87;;;4.90;;